Latest Weather Observations for Jandakot

IDW60901

Issued at 1:01 pm WST Monday 22 December 2014 (issued every 10 minutes, with the page automatically refreshed every 10 minutes)

About weather observations | Map of Perth area stations | Latest observations for Perth area | Other Formats
Station Details ID: 009172 Name: JANDAKOT AERO Lat: -32.10 Lon: 115.88 Height: 30.0 m
Data from the previous 72 hours. | See also: Recent months at Jandakot
Date/Time
WST
Tmp

°C
App
Tmp
°C
Dew
Point
°C
Rel
Hum
%
Delta-T

°C
Wind Press
QNH
hPa
Press
MSL
hPa
Rain
since
9 am
mm
Dir
 
Spd
km/h
Gust
km/h
Spd
kts
Gust
kts
22/01:00pm 27.5 21.9 11.6 37 9.1 WSW 32 41 17 22 1015.8 1015.7 0.0
22/12:30pm 27.1 22.3 11.5 37 8.9 WSW 28 33 15 18 1015.9 1015.8 0.0
22/12:00pm 27.3 25.0 11.8 38 8.9 SSW 15 28 8 15 1016.1 1016.0 0.0
22/11:30am 26.0 24.7 11.1 39 8.4 WSW 9 19 5 10 1016.7 1016.6 0.0
22/11:00am 25.2 24.1 12.1 44 7.5 WSW 9 15 5 8 1017.0 1016.9 0.0
22/10:30am 25.3 25.0 13.3 47 7.0 SSE 7 13 4 7 1017.4 1017.3 0.0
22/10:00am 24.2 23.1 13.2 50 6.4 SE 11 17 6 9 1017.6 1017.5 0.0
22/09:30am 24.1 23.6 13.7 52 6.1 ENE 9 15 5 8 1017.7 1017.6 0.0
22/09:00am 22.6 21.1 13.2 55 5.4 ESE 13 19 7 10 1017.7 1017.6 0.0
22/08:30am 21.7 19.8 12.9 57 5.0 E 15 20 8 11 1017.9 1017.8 0.0
22/08:00am 20.3 17.0 12.7 61 4.3 SE 22 28 12 15 1018.0 1017.9 0.0
22/07:30am 19.8 17.5 12.9 64 3.9 E 17 24 9 13 1017.9 1017.8 0.0
22/07:00am 18.7 16.7 12.6 67 3.4 E 15 20 8 11 1017.7 1017.6 0.0
22/06:30am 17.7 15.3 12.5 71 2.9 E 17 20 9 11 1017.5 1017.4 0.0
22/06:00am 16.8 14.7 12.3 75 2.5 ESE 15 19 8 10 1017.3 1017.2 0.0
22/05:30am 15.8 13.2 12.1 78 2.0 E 17 20 9 11 1017.0 1016.9 0.0
22/05:00am 15.4 13.5 11.9 79 1.9 ESE 13 17 7 9 1016.6 1016.5 0.0
22/04:30am 16.3 14.0 11.9 75 2.4 E 15 20 8 11 1016.4 1016.3 0.0
22/04:00am 16.9 14.2 11.8 72 2.8 E 17 30 9 16 1016.0 1015.9 0.0
22/03:30am 17.0 14.4 11.9 72 2.8 E 17 28 9 15 1015.8 1015.7 0.0
22/03:00am 17.3 14.6 11.8 70 3.0 ESE 17 22 9 12 1015.9 1015.8 0.0
22/02:30am 17.8 15.1 11.8 68 3.3 E 17 24 9 13 1015.8 1015.7 0.0
22/02:00am 18.2 14.9 11.6 65 3.6 E 20 26 11 14 1015.9 1015.8 0.0
22/01:30am 18.5 15.8 11.6 64 3.8 ESE 17 28 9 15 1016.0 1015.9 0.0
22/01:00am 18.6 16.6 11.5 63 3.9 E 13 20 7 11 1016.1 1016.0 0.0
22/12:30am 19.5 17.0 11.1 58 4.6 ESE 15 22 8 12 1016.3 1016.2 0.0
22/12:00am 18.5 16.4 11.1 62 4.0 ESE 13 20 7 11 1016.4 1016.3 0.0
 
Date/Time
WST
Tmp

°C
App
Tmp
°C
Dew
Point
°C
Rel
Hum
%
Delta-T

°C
Wind Press
QNH
hPa
Press
MSL
hPa
Rain
since
9 am
mm
Dir
 
Spd
km/h
Gust
km/h
Spd
kts
Gust
kts
21/11:30pm 17.0 16.1 11.5 70 3.0 SSE 7 11 4 6 1016.6 1016.5 0.0
21/11:00pm 18.7 17.6 12.0 65 3.7 SSE 9 11 5 6 1016.7 1016.6 0.0
21/10:30pm 19.5 17.2 11.7 60 4.3 SSE 15 22 8 12 1016.9 1016.8 0.0
21/10:00pm 20.1 17.8 11.8 59 4.6 SSE 15 19 8 10 1016.8 1016.7 0.0
21/09:30pm 20.6 18.3 11.8 57 4.9 S 15 20 8 11 1016.5 1016.4 0.0
21/09:00pm 21.2 18.7 12.3 57 5.0 S 17 24 9 13 1016.2 1016.1 0.0
21/08:30pm 21.6 19.6 12.8 57 5.0 S 15 19 8 10 1016.0 1015.9 0.0
21/08:00pm 21.9 19.8 13.6 59 4.8 SSW 17 22 9 12 1015.7 1015.6 0.0
21/07:30pm 22.4 20.0 13.8 58 5.0 SSW 19 28 10 15 1015.4 1015.3 0.0
21/07:00pm 23.3 20.6 13.5 54 5.7 SSW 20 32 11 17 1015.1 1015.0 0.0
21/06:30pm 24.1 20.1 13.0 50 6.4 SSW 26 37 14 20 1014.7 1014.6 0.0
21/06:00pm 24.9 20.4 12.6 46 7.1 SSW 28 37 15 20 1014.4 1014.3 0.0
21/05:30pm 25.3 20.8 12.5 45 7.4 SW 28 39 15 21 1014.2 1014.1 0.0
21/05:00pm 25.4 20.1 12.6 45 7.4 SSW 32 46 17 25 1014.2 1014.1 0.0
21/04:30pm 26.2 20.7 12.6 43 7.9 SW 33 46 18 25 1014.1 1014.0 0.0
21/04:00pm 27.3 22.5 12.8 40 8.5 SW 30 39 16 21 1014.3 1014.2 0.0
21/03:30pm 27.4 22.8 13.5 42 8.2 WSW 30 41 16 22 1014.5 1014.4 0.0
21/03:00pm 28.1 23.7 13.0 39 8.9 WSW 28 35 15 19 1014.6 1014.5 0.0
21/02:30pm 27.7 23.7 13.1 40 8.6 SW 26 39 14 21 1014.8 1014.7 0.0
21/02:00pm 27.2 22.4 13.9 44 7.9 WSW 32 39 17 21 1015.3 1015.2 0.0
21/01:30pm 27.0 21.9 13.2 42 8.1 WSW 32 41 17 22 1015.7 1015.6 0.0
21/01:20pm 27.4 23.2 12.4 39 8.7 SW 26 37 14 20 1015.6 1015.5 0.0
21/01:00pm 27.6 25.4 9.3 31 10.1 S 11 19 6 10 1015.9 1015.8 0.0
21/12:30pm 27.6 25.3 10.6 34 9.6 SSE 13 26 7 14 1016.1 1016.0 0.0
21/12:00pm 27.5 24.1 9.2 31 10.1 SE 17 32 9 17 1016.4 1016.3 0.0
21/11:30am 26.5 22.7 9.1 33 9.5 SE 19 28 10 15 1016.9 1016.8 0.0
21/11:00am 25.6 21.6 9.1 35 9.0 SSE 20 32 11 17 1017.3 1017.2 0.0
21/10:30am 25.3 21.3 8.3 34 9.1 SSE 19 30 10 16 1017.3 1017.2 0.0
21/10:00am 24.8 20.8 9.1 37 8.5 SE 20 32 11 17 1017.5 1017.4 0.0
21/09:30am 23.4 19.8 9.8 42 7.4 SE 19 30 10 16 1017.6 1017.5 0.0
21/09:00am 22.2 18.4 9.8 45 6.7 SE 20 30 11 16 1017.9 1017.8 0.0
21/08:30am 21.3 16.2 9.3 46 6.4 SE 26 37 14 20 1017.9 1017.8 0.0
21/08:00am 20.4 15.9 10.2 52 5.5 SE 24 33 13 18 1018.1 1018.0 0.0
21/07:30am 20.1 16.1 10.3 53 5.3 SE 22 32 12 17 1017.9 1017.8 0.0
21/07:00am 18.7 15.7 10.7 59 4.3 SSE 17 26 9 14 1017.8 1017.7 0.0
21/06:30am 17.2 14.9 10.6 65 3.5 S 13 17 7 9 1017.6 1017.5 0.0
21/06:00am 15.8 13.9 10.5 71 2.8 SSW 11 15 6 8 1017.4 1017.3 0.0
21/05:30am 15.3 13.3 10.3 72 2.6 S 11 15 6 8 1017.1 1017.0 0.0
21/05:00am 15.3 12.6 10.4 72 2.6 SSE 15 20 8 11 1016.7 1016.6 0.0
21/04:30am 14.8 12.8 10.2 74 2.4 SSE 11 17 6 9 1016.3 1016.2 0.0
21/04:00am 14.6 12.9 10.0 74 2.4 SSE 9 13 5 7 1016.0 1015.9 0.0
21/03:30am 15.0 12.9 9.8 71 2.7 SSE 11 15 6 8 1015.9 1015.8 0.0
21/03:00am 15.6 13.5 9.8 68 3.0 S 11 17 6 9 1015.6 1015.5 0.0
21/02:30am 16.4 14.3 9.9 65 3.4 S 11 19 6 10 1015.8 1015.7 0.0
21/02:00am 17.1 13.9 9.9 62 3.8 SE 17 26 9 14 1015.8 1015.7 0.0
21/01:30am 17.4 12.8 9.8 61 4.0 SE 24 32 13 17 1015.8 1015.7 0.0
21/01:00am 17.9 12.8 9.3 57 4.5 SE 26 35 14 19 1015.7 1015.6 0.0
21/12:30am 18.6 13.4 9.0 53 5.0 SE 26 39 14 21 1015.8 1015.7 0.0
21/12:00am 18.7 14.9 9.2 54 5.0 SSE 19 30 10 16 1015.6 1015.5 0.0
 
Date/Time
WST
Tmp

°C
App
Tmp
°C
Dew
Point
°C
Rel
Hum
%
Delta-T

°C
Wind Press
QNH
hPa
Press
MSL
hPa
Rain
since
9 am
mm
Dir
 
Spd
km/h
Gust
km/h
Spd
kts
Gust
kts
20/11:30pm 19.0 15.5 7.4 47 5.9 SSE 15 20 8 11 1015.4 1015.3 0.0
20/11:00pm 20.4 15.7 6.2 39 7.1 SE 20 30 11 16 1015.2 1015.1 0.0
20/10:30pm 20.7 16.7 6.7 40 7.1 SSE 17 24 9 13 1014.9 1014.8 0.0
20/10:00pm 21.6 17.0 6.4 37 7.7 SSE 20 37 11 20 1014.6 1014.5 0.0
20/09:30pm 22.0 17.7 6.8 37 7.8 SSE 19 28 10 15 1014.1 1014.0 0.0
20/09:00pm 22.9 17.5 6.2 34 8.5 SSE 24 32 13 17 1013.5 1013.4 0.0
20/08:30pm 24.0 18.7 5.1 29 9.5 SSE 22 32 12 17 1012.9 1012.8 0.0
20/08:00pm 24.7 20.3 7.4 33 9.1 SSE 20 28 11 15 1012.2 1012.1 0.0
20/07:30pm 25.8 21.3 7.0 30 9.9 SSE 20 30 11 16 1011.5 1011.4 0.0
20/07:00pm 26.8 20.9 7.3 29 10.4 SSE 28 39 15 21 1010.8 1010.7 0.0
20/06:30pm 27.9 22.1 9.6 31 10.2 SSE 30 41 16 22 1010.1 1010.0 0.0
20/06:00pm 26.8 24.2 13.8 44 7.7 SW 20 30 11 16 1009.5 1009.4 0.0
20/05:30pm 26.4 22.0 14.0 46 7.4 SW 30 43 16 23 1009.0 1008.9 0.0
20/05:00pm 27.1 21.9 13.4 42 8.1 SSW 33 46 18 25 1008.6 1008.5 0.0
20/04:30pm 26.9 21.2 13.1 42 8.1 SW 35 48 19 26 1008.3 1008.2 0.0
20/04:15pm 27.0 21.6 12.8 41 8.3 SW 33 52 18 28 1008.1 1008.0 0.0
20/04:00pm 27.4 21.6 12.7 40 8.6 SW 35 48 19 26 1008.1 1008.0 0.0
20/03:30pm 27.4 21.6 12.7 40 8.6 SW 35 46 19 25 1008.1 1008.0 0.0
20/03:00pm 27.1 21.1 13.2 42 8.2 SW 37 48 20 26 1008.3 1008.2 0.0
20/02:30pm 27.5 22.8 14.4 44 7.9 SW 32 41 17 22 1008.7 1008.6 0.0
20/02:00pm 26.9 22.3 15.2 48 7.1 SW 33 46 18 25 1008.9 1008.8 0.0
20/01:30pm 26.9 22.0 15.2 48 7.1 SW 35 44 19 24 1008.9 1008.8 0.0
20/01:00pm 26.6 22.4 15.6 50 6.7 SW 32 43 17 23 1009.0 1008.9 0.0
20/12:30pm 26.4 22.2 15.8 52 6.5 SW 32 43 17 23 1009.0 1008.9 0.0
20/12:00pm 26.7 22.4 15.4 50 6.9 SW 32 46 17 25 1008.9 1008.8 0.0
20/11:30am 26.7 22.8 15.4 50 6.9 SW 30 39 16 21 1009.0 1008.9 0.0
20/11:00am 25.6 21.3 15.4 53 6.2 SW 32 39 17 21 1008.9 1008.8 0.0
20/10:30am 25.7 22.4 16.1 55 5.9 SW 28 39 15 21 1008.9 1008.8 0.0
20/10:00am 25.5 21.8 15.1 52 6.3 SW 28 35 15 19 1008.6 1008.5 0.0
20/09:30am 26.7 24.1 16.0 52 6.6 SW 24 30 13 16 1008.4 1008.3 0.0
20/09:00am 25.7 22.8 15.1 52 6.4 SW 24 30 13 16 1008.3 1008.2 0.0
20/08:30am 24.9 22.8 16.1 58 5.4 SW 22 30 12 16 1008.1 1008.0 0.0
20/08:00am 24.7 23.2 16.8 61 4.9 SW 20 26 11 14 1008.0 1007.9 0.0
20/07:30am 23.8 21.9 16.8 65 4.3 SW 22 30 12 16 1007.9 1007.8 0.0
20/07:00am 23.9 22.9 17.5 67 4.0 SW 19 22 10 12 1007.6 1007.5 0.0
20/06:30am 23.2 23.1 17.9 72 3.3 SW 15 20 8 11 1007.4 1007.3 0.0
20/06:00am 22.6 22.9 17.8 74 3.0 SW 13 17 7 9 1007.1 1007.0 0.0
20/05:30am 21.8 21.9 16.4 71 3.3 WSW 11 15 6 8 1006.8 1006.7 0.0
20/05:00am 21.7 22.4 15.7 68 3.6 SSW 6 11 3 6 1006.5 1006.4 0.0
20/04:30am 20.8 20.2 14.5 67 3.7 SE 11 11 6 6 1006.1 1005.9 0.0
20/04:00am 21.8 22.8 15.3 66 3.9 SSE 4 6 2 3 1006.1 1005.9 0.0
20/03:30am 22.5 22.3 14.7 61 4.6 SSE 9 11 5 6 1006.1 1005.9 0.0
20/03:00am 23.5 23.1 15.2 59 5.0 E 11 15 6 8 1005.9 1005.7 0.0
20/02:30am 22.7 22.3 14.0 58 5.1 SE 9 15 5 8 1006.0 1005.8 0.0
20/02:00am 22.3 21.9 14.1 59 4.8 ESE 9 11 5 6 1006.1 1005.9 0.0
20/01:30am 23.0 22.2 14.0 57 5.3 SSE 11 13 6 7 1006.7 1006.6 0.0
20/01:00am 23.5 23.0 13.8 54 5.7 SSE 9 11 5 6 1007.2 1007.1 0.0
20/12:30am 23.9 23.3 13.4 51 6.1 SSE 9 13 5 7 1007.5 1007.4 0.0
20/12:00am 24.7 23.6 13.2 48 6.7 SSW 11 19 6 10 1007.6 1007.5 0.0
 
Date/Time
WST
Tmp

°C
App
Tmp
°C
Dew
Point
°C
Rel
Hum
%
Delta-T

°C
Wind Press
QNH
hPa
Press
MSL
hPa
Rain
since
9 am
mm
Dir
 
Spd
km/h
Gust
km/h
Spd
kts
Gust
kts
19/11:30pm 25.5 22.6 12.3 43 7.6 SSW 19 24 10 13 1007.6 1007.5 0.0
19/11:00pm 26.3 23.2 11.6 40 8.4 SSW 19 24 10 13 1008.0 1007.9 0.0
19/10:30pm 26.7 24.3 11.5 38 8.7 S 15 22 8 12 1008.4 1008.3 0.0
19/10:00pm 27.1 24.8 11.8 38 8.8 SE 15 22 8 12 1009.0 1008.9 0.0
19/09:30pm 27.0 24.1 12.4 40 8.5 S 19 26 10 14 1007.6 1007.5 0.0
19/09:00pm 26.6 24.8 13.4 44 7.8 SW 15 20 8 11 1007.6 1007.5 0.0
19/08:30pm 27.2 25.3 13.1 41 8.3 SSW 15 20 8 11 1007.4 1007.3 0.0
19/08:00pm 27.8 25.0 12.6 39 8.9 SSW 19 26 10 14 1007.0 1006.9 0.0
19/07:30pm 28.4 24.8 10.4 32 10.2 SSW 20 28 11 15 1006.8 1006.7 0.0
19/07:00pm 29.9 24.6 6.9 23 12.4 SSW 24 35 13 19 1006.5 1006.4 0.0
19/06:30pm 30.8 24.3 4.8 19 13.6 SSW 28 41 15 22 1006.3 1006.1 0.0
19/06:10pm 31.3 25.8 6.1 20 13.5 SSW 24 39 13 21 1006.2 1006.0 0.0
19/06:00pm 31.3 25.4 5.8 20 13.6 SSW 26 39 14 21 1006.1 1005.9 0.0
19/05:30pm 32.0 25.0 5.9 19 14.0 SSW 32 46 17 25 1006.0 1005.8 0.0
19/05:09pm 33.0 26.8 6.3 19 14.4 SSW 28 44 15 24 1005.9 1005.7 0.0
19/05:00pm 33.6 27.1 6.5 18 14.8 SW 30 39 16 21 1006.0 1005.8 0.0
19/04:30pm 35.1 29.4 6.9 17 15.6 SW 26 39 14 21 1006.1 1005.9 0.0
19/04:00pm 35.4 29.5 5.6 15 16.2 SW 26 35 14 19 1006.6 1006.5 0.0
19/03:30pm 36.0 29.1 6.5 16 16.3 SSW 32 43 17 23 1007.1 1007.0 0.0
19/03:00pm 36.4 31.6 10.3 20 15.3 SW 26 35 14 19 1007.7 1007.6 0.0
19/02:30pm 35.3 29.7 10.2 21 14.6 SW 30 39 16 21 1008.3 1008.2 0.0
19/02:00pm 35.5 30.2 9.8 21 14.9 WSW 28 35 15 19 1008.8 1008.7 0.0
19/01:30pm 35.3 30.6 10.5 22 14.5 WSW 26 32 14 17 1009.3 1009.2 0.0

Latest Capital City Observations: Canberra | Sydney | Melbourne | Brisbane | Adelaide | Perth | Hobart | Darwin

Other Formats:

Comma delimited format used in spreadsheet applications
http://www.bom.gov.au/fwo/IDW60901/IDW60901.94609.axf

JavaScript Object Notation format (JSON) in row-major order
http://www.bom.gov.au/fwo/IDW60901/IDW60901.94609.json